createdAt,value
2023-01-23T00:01:56.565Z,16.00
2023-01-23T00:04:42.178Z,12.73
2023-01-23T00:07:27.317Z,12.70
2023-01-23T00:10:12.965Z,15.03
2023-01-23T00:12:58.604Z,14.00
2023-01-23T00:15:44.406Z,12.10
2023-01-23T00:18:29.740Z,12.27
2023-01-23T00:21:17.162Z,11.23
2023-01-23T00:24:02.611Z,13.03
2023-01-23T00:26:47.987Z,12.00
2023-01-23T00:29:33.407Z,12.87
2023-01-23T00:32:18.699Z,11.07
2023-01-23T00:35:04.507Z,11.23
2023-01-23T00:37:50.111Z,14.17
2023-01-23T00:40:35.705Z,11.13
2023-01-23T00:43:21.620Z,10.67
2023-01-23T00:46:07.164Z,12.50
2023-01-23T00:48:52.845Z,11.53
2023-01-23T00:51:38.526Z,12.73
2023-01-23T00:54:25.972Z,12.20
2023-01-23T00:57:11.255Z,12.00
2023-01-23T00:59:56.733Z,15.13
2023-01-23T01:02:42.356Z,12.00
2023-01-23T01:05:27.990Z,14.17
2023-01-23T01:08:13.333Z,12.13
2023-01-23T01:10:58.888Z,12.83
2023-01-23T01:13:44.866Z,10.80
2023-01-23T01:16:30.386Z,10.70
2023-01-23T01:19:17.699Z,12.73
2023-01-23T01:22:03.211Z,11.47
2023-01-23T01:24:48.772Z,12.27
2023-01-23T01:27:34.047Z,12.70
2023-01-23T01:30:20.291Z,12.53
2023-01-23T01:33:06.111Z,13.90
2023-01-23T01:35:52.027Z,11.90
2023-01-23T01:38:37.564Z,10.97
2023-01-23T01:41:22.886Z,10.73
2023-01-23T01:44:15.930Z,11.73
2023-01-23T01:47:01.452Z,12.77
2023-01-23T01:49:47.801Z,11.17
2023-01-23T01:52:33.291Z,10.63
2023-01-23T01:55:19.121Z,12.57
2023-01-23T01:58:04.499Z,11.57
2023-01-23T02:00:50.050Z,12.00
2023-01-23T02:03:36.098Z,12.47
2023-01-23T02:06:21.472Z,12.43
2023-01-23T02:09:14.955Z,12.00
2023-01-23T02:12:02.052Z,14.63
2023-01-23T02:14:47.388Z,13.77
2023-01-23T02:17:35.591Z,14.20
2023-01-23T02:20:24.692Z,15.03
2023-01-23T02:23:33.990Z,14.07
2023-01-23T02:26:27.915Z,14.63
2023-01-23T02:29:14.707Z,13.93
2023-01-23T02:32:00.073Z,16.00
2023-01-23T02:34:45.892Z,12.17
2023-01-23T02:37:34.514Z,13.10
2023-01-23T02:40:29.675Z,13.37
2023-01-23T02:43:21.365Z,13.87
2023-01-23T02:46:12.197Z,12.53
2023-01-23T02:48:58.099Z,14.60
2023-01-23T02:51:43.371Z,14.50
2023-01-23T02:54:29.013Z,13.50
2023-01-23T02:57:14.431Z,16.27
2023-01-23T03:00:20.700Z,13.63
2023-01-23T03:03:07.924Z,13.90
2023-01-23T03:05:55.577Z,13.83
2023-01-23T03:08:49.108Z,12.33
2023-01-23T03:11:35.757Z,14.37
2023-01-23T03:14:23.673Z,13.93
2023-01-23T03:17:11.103Z,14.67
2023-01-23T03:19:57.823Z,13.87
2023-01-23T03:22:43.194Z,12.83
2023-01-23T03:25:28.858Z,15.10
2023-01-23T03:28:32.839Z,14.97
2023-01-23T03:31:18.283Z,15.77
2023-01-23T03:34:03.768Z,15.07
2023-01-23T03:36:49.368Z,14.23
2023-01-23T03:39:53.560Z,14.77
2023-01-23T03:42:38.763Z,14.02
2023-01-23T03:45:24.207Z,14.40
2023-01-23T03:48:09.976Z,13.73
2023-01-23T03:50:55.267Z,13.93
2023-01-23T03:53:40.784Z,14.60
2023-01-23T03:56:26.272Z,15.67
2023-01-23T03:59:11.826Z,14.03
2023-01-23T04:01:58.129Z,13.50
2023-01-23T04:04:43.823Z,15.03
2023-01-23T04:07:29.351Z,14.83
2023-01-23T04:10:15.839Z,15.90
2023-01-23T04:13:01.074Z,13.10
2023-01-23T04:15:46.740Z,14.57
2023-01-23T04:18:32.934Z,16.43
2023-01-23T04:21:18.202Z,15.73
2023-01-23T04:24:03.847Z,15.43
2023-01-23T04:26:49.402Z,15.63
2023-01-23T04:29:34.802Z,14.90
2023-01-23T04:32:20.362Z,14.40
2023-01-23T04:35:06.263Z,12.20
2023-01-23T04:37:52.051Z,13.40
2023-01-23T04:40:37.686Z,15.23
2023-01-23T04:43:23.547Z,15.50
2023-01-23T04:46:08.907Z,15.47
2023-01-23T04:48:54.859Z,15.50
2023-01-23T04:51:40.756Z,15.37
2023-01-23T04:54:26.279Z,13.30
2023-01-23T04:57:11.815Z,15.67
2023-01-23T04:59:59.523Z,15.90
2023-01-23T05:02:50.059Z,15.43
2023-01-23T05:05:35.537Z,16.03
2023-01-23T05:08:21.071Z,15.57
2023-01-23T05:11:06.715Z,15.67
2023-01-23T05:13:52.440Z,13.73
2023-01-23T05:16:37.832Z,13.87
2023-01-23T05:19:23.455Z,14.83
2023-01-23T05:22:09.151Z,15.40
2023-01-23T05:24:54.766Z,13.90
2023-01-23T05:27:40.240Z,15.13
2023-01-23T05:30:25.766Z,16.10
2023-01-23T05:33:11.043Z,13.63
2023-01-23T05:36:00.886Z,13.57
2023-01-23T05:38:46.257Z,16.43
2023-01-23T05:41:31.805Z,15.03
2023-01-23T05:44:17.492Z,13.83
2023-01-23T05:47:03.086Z,14.37
2023-01-23T05:49:48.180Z,15.17
2023-01-23T05:52:34.989Z,15.37
2023-01-23T05:55:20.309Z,13.57
2023-01-23T05:58:05.947Z,13.97
2023-01-23T06:00:51.252Z,13.87
2023-01-23T06:03:36.686Z,13.53
2023-01-23T06:06:21.955Z,14.90
2023-01-23T06:09:07.402Z,13.93
2023-01-23T06:11:53.024Z,14.57
2023-01-23T06:14:38.925Z,12.20
2023-01-23T06:17:24.684Z,12.70
2023-01-23T06:20:11.423Z,12.30
2023-01-23T06:22:57.377Z,12.93
2023-01-23T06:25:43.146Z,13.17
2023-01-23T06:28:29.133Z,11.27
2023-01-23T06:31:14.550Z,10.50
2023-01-23T06:34:00.579Z,12.43
2023-01-23T06:36:46.303Z,9.67
2023-01-23T06:39:31.781Z,11.77
2023-01-23T06:42:17.524Z,12.47
2023-01-23T06:45:02.766Z,11.80
2023-01-23T06:47:48.326Z,12.40
2023-01-23T06:50:33.846Z,12.93
2023-01-23T06:53:19.521Z,12.27
2023-01-23T06:56:07.354Z,11.80
2023-01-23T06:58:53.070Z,13.07
2023-01-23T07:01:39.750Z,11.93
2023-01-23T07:04:25.198Z,13.80
2023-01-23T07:07:10.630Z,12.33
2023-01-23T07:09:56.078Z,13.63
2023-01-23T07:12:41.683Z,16.60
2023-01-23T07:15:27.056Z,13.80
2023-01-23T07:18:12.716Z,12.40
2023-01-23T07:20:58.139Z,12.33
2023-01-23T07:23:43.721Z,11.40
2023-01-23T07:26:29.068Z,13.37
2023-01-23T07:29:14.712Z,11.10
2023-01-23T07:32:01.103Z,11.87
2023-01-23T07:34:46.371Z,11.87
2023-01-23T07:37:31.907Z,13.20
2023-01-23T07:40:18.073Z,12.57
2023-01-23T07:43:03.703Z,11.97
2023-01-23T07:45:49.212Z,13.43
2023-01-23T07:48:34.327Z,12.23
2023-01-23T07:51:21.049Z,13.27
2023-01-23T07:54:06.455Z,12.87
2023-01-23T07:56:51.822Z,13.07
2023-01-23T07:59:37.283Z,16.07
2023-01-23T08:02:22.947Z,14.03
2023-01-23T08:05:08.620Z,12.13
2023-01-23T08:08:07.403Z,14.27
2023-01-23T08:10:57.733Z,22.80
2023-01-23T08:13:43.470Z,18.77
2023-01-23T08:16:29.222Z,16.90
2023-01-23T08:19:14.712Z,13.40
2023-01-23T08:22:00.509Z,14.10
2023-01-23T08:24:46.153Z,14.10
2023-01-23T08:27:31.786Z,14.00
2023-01-23T08:30:18.178Z,13.10
2023-01-23T08:33:04.832Z,20.73
2023-01-23T08:35:57.260Z,16.47
2023-01-23T08:38:42.901Z,16.93
2023-01-23T08:41:28.154Z,16.07
2023-01-23T08:44:13.776Z,13.23
2023-01-23T08:46:59.037Z,17.63
2023-01-23T08:49:44.466Z,13.73
2023-01-23T08:52:30.175Z,16.77
2023-01-23T08:55:15.441Z,15.77
2023-01-23T08:58:00.736Z,30.23
2023-01-23T09:00:48.050Z,29.70
2023-01-23T09:03:33.863Z,25.03
2023-01-23T09:06:21.983Z,23.43
2023-01-23T09:09:07.630Z,17.13
2023-01-23T09:11:54.162Z,20.60
2023-01-23T09:14:39.815Z,16.70
2023-01-23T09:17:25.405Z,15.73
2023-01-23T09:20:11.586Z,15.33
2023-01-23T09:22:56.992Z,16.83
2023-01-23T09:25:42.504Z,17.07
2023-01-23T09:28:28.133Z,16.63
2023-01-23T09:31:14.667Z,15.70
2023-01-23T09:33:59.972Z,20.10
2023-01-23T09:36:45.684Z,21.90
2023-01-23T09:39:31.250Z,16.53
2023-01-23T09:42:23.527Z,16.50
2023-01-23T09:45:15.427Z,15.10
2023-01-23T09:48:29.897Z,19.70
2023-01-23T09:51:23.191Z,14.90
2023-01-23T09:54:32.705Z,14.93
2023-01-23T09:57:26.079Z,15.77
2023-01-23T10:00:22.769Z,14.77
2023-01-23T10:03:15.466Z,15.57
2023-01-23T10:06:06.779Z,13.97
2023-01-23T10:09:20.297Z,16.37
2023-01-23T10:12:25.939Z,14.93
2023-01-23T10:15:22.474Z,16.73
2023-01-23T10:18:47.198Z,13.97
2023-01-23T10:21:41.396Z,15.57
2023-01-23T10:24:40.749Z,14.82
2023-01-23T10:27:44.334Z,15.83
2023-01-23T10:30:34.681Z,14.40
2023-01-23T10:33:20.263Z,15.50
2023-01-23T10:36:23.975Z,16.20
2023-01-23T10:40:02.482Z,19.55
2023-01-23T10:42:47.995Z,14.23
2023-01-23T10:45:33.387Z,16.00
2023-01-23T10:48:44.700Z,15.30
2023-01-23T10:51:38.518Z,16.13
2023-01-23T10:54:33.860Z,15.63
2023-01-23T10:57:26.494Z,15.47
2023-01-23T11:00:27.842Z,14.10
2023-01-23T11:03:22.492Z,13.13
2023-01-23T11:06:16.409Z,15.73
2023-01-23T11:09:02.005Z,13.57
2023-01-23T11:12:00.599Z,15.57
2023-01-23T11:14:46.404Z,17.53
2023-01-23T11:17:33.528Z,15.70
2023-01-23T11:20:46.877Z,13.20
2023-01-23T11:23:34.568Z,14.53
2023-01-23T11:26:31.579Z,14.30
2023-01-23T11:29:26.025Z,12.57
2023-01-23T11:32:13.593Z,13.65
2023-01-23T11:35:45.059Z,13.47
2023-01-23T11:38:52.129Z,12.13
2023-01-23T11:41:39.401Z,10.40
2023-01-23T11:44:25.540Z,10.50
2023-01-23T11:47:46.049Z,10.90
2023-01-23T11:50:54.501Z,10.90
2023-01-23T11:54:04.195Z,11.93
2023-01-23T11:57:08.673Z,12.30
2023-01-23T12:00:25.269Z,11.80
2023-01-23T12:03:24.453Z,14.90
2023-01-23T12:06:21.872Z,12.37
2023-01-23T12:09:13.293Z,11.63
2023-01-23T12:12:19.824Z,14.37
2023-01-23T12:15:23.265Z,11.43
2023-01-23T12:18:38.438Z,13.83
2023-01-23T12:21:42.609Z,26.13
2023-01-23T12:25:05.706Z,30.93
2023-01-23T12:28:17.302Z,16.57
2023-01-23T12:31:14.792Z,12.60
2023-01-23T12:34:06.689Z,14.03
2023-01-23T12:37:08.492Z,12.67
2023-01-23T12:43:12.999Z,13.37
2023-01-23T12:46:08.483Z,13.73
2023-01-23T12:49:31.667Z,15.53
2023-01-23T12:52:44.387Z,12.87
2023-01-23T12:55:59.273Z,16.87
2023-01-23T12:59:00.445Z,15.52
2023-01-23T13:02:00.729Z,14.33
2023-01-23T13:05:34.658Z,13.90
2023-01-23T13:08:38.092Z,15.57
2023-01-23T13:11:55.518Z,13.67
2023-01-23T13:15:00.641Z,14.40
2023-01-23T13:17:59.184Z,17.57
2023-01-23T13:21:17.790Z,15.13
2023-01-23T13:24:45.544Z,14.10
2023-01-23T13:27:50.553Z,14.57
2023-01-23T13:30:39.787Z,17.30
2023-01-23T13:33:34.309Z,15.17
2023-01-23T13:36:28.722Z,17.58
2023-01-23T13:39:16.957Z,13.93
2023-01-23T13:42:14.951Z,16.67
2023-01-23T13:45:27.525Z,16.23
2023-01-23T14:26:49.529Z,16.60
2023-01-23T14:29:35.451Z,18.52
2023-01-23T14:32:23.957Z,21.83
2023-01-23T14:35:31.095Z,26.83
2023-01-23T14:38:26.926Z,21.30
2023-01-23T14:41:12.470Z,17.83
2023-01-23T14:43:58.886Z,18.37
2023-01-23T14:46:46.653Z,17.97
2023-01-23T14:49:35.975Z,17.03
2023-01-23T14:52:28.883Z,19.57
2023-01-23T14:55:29.330Z,17.80
2023-01-23T14:58:25.370Z,17.83
2023-01-23T15:01:11.267Z,16.43
2023-01-23T15:04:02.431Z,18.17
2023-01-23T15:06:53.603Z,18.73
2023-01-23T15:09:44.958Z,17.83
2023-01-23T15:12:30.243Z,17.27
2023-01-23T15:15:20.530Z,18.07
2023-01-23T15:18:18.389Z,20.53
2023-01-23T15:21:06.604Z,18.73
2023-01-23T15:24:10.258Z,18.30
2023-01-23T15:26:58.170Z,20.63
2023-01-23T15:29:44.860Z,20.40
2023-01-23T15:32:30.459Z,18.37
2023-01-23T15:35:17.870Z,19.70
2023-01-23T15:38:05.847Z,19.87
2023-01-23T15:40:52.738Z,18.10
2023-01-23T15:43:38.401Z,18.60
2023-01-23T15:46:23.836Z,17.20
2023-01-23T15:49:23.590Z,17.97
2023-01-23T15:52:24.208Z,18.80
2023-01-23T15:55:11.476Z,18.10
2023-01-23T15:57:57.228Z,19.27
2023-01-23T16:00:42.637Z,19.10
2023-01-23T16:03:28.287Z,17.63
2023-01-23T16:06:21.796Z,15.80
2023-01-23T16:09:07.429Z,19.20
2023-01-23T16:11:53.484Z,18.93
2023-01-23T16:14:38.737Z,20.20
2023-01-23T16:17:24.403Z,17.30
2023-01-23T16:20:34.680Z,18.67
2023-01-23T16:23:24.624Z,17.73
2023-01-23T16:26:20.965Z,16.57
2023-01-23T16:29:13.665Z,18.27
2023-01-23T16:32:01.137Z,18.50
2023-01-23T16:34:46.694Z,19.37
2023-01-23T16:37:32.419Z,19.13
2023-01-23T16:40:22.026Z,18.40
2023-01-23T16:43:07.403Z,19.23
2023-01-23T16:45:56.207Z,21.30
2023-01-23T16:48:41.978Z,17.80
2023-01-23T16:51:27.698Z,18.83
2023-01-23T16:54:19.321Z,19.00
2023-01-23T16:57:04.684Z,20.13
2023-01-23T16:59:51.094Z,20.03
2023-01-23T17:02:36.521Z,22.17
2023-01-23T17:05:22.385Z,18.70
2023-01-23T17:08:23.304Z,21.60
2023-01-23T17:11:14.115Z,17.30
2023-01-23T17:14:02.945Z,19.30
2023-01-23T17:16:50.050Z,19.37
2023-01-23T17:19:41.565Z,19.23
2023-01-23T17:22:33.182Z,18.77
2023-01-23T17:25:24.467Z,20.53
2023-01-23T17:28:13.148Z,20.13
2023-01-23T17:31:00.679Z,21.10
2023-01-23T17:33:45.997Z,19.87
2023-01-23T17:36:31.536Z,17.87
2023-01-23T17:39:16.897Z,20.53
2023-01-23T17:42:02.385Z,20.50
2023-01-23T17:44:48.893Z,24.00
2023-01-23T17:47:35.141Z,21.30
2023-01-23T17:50:23.336Z,21.00
2023-01-23T17:53:15.563Z,21.60
2023-01-23T17:56:01.084Z,19.87
2023-01-23T17:58:46.680Z,18.97
2023-01-23T18:01:31.860Z,21.03
2023-01-23T18:04:20.048Z,23.53
2023-01-23T18:07:05.320Z,20.50
2023-01-23T18:09:51.224Z,20.23
2023-01-23T18:13:04.490Z,20.47
2023-01-23T18:16:05.518Z,20.17
2023-01-23T18:18:58.654Z,19.67
2023-01-23T18:21:47.424Z,20.40
2023-01-23T18:24:33.478Z,20.17
2023-01-23T18:27:25.024Z,21.47
2023-01-23T18:30:39.955Z,20.27
2023-01-23T18:33:40.341Z,21.63
2023-01-23T18:37:00.955Z,21.73
2023-01-23T18:40:43.342Z,20.80
2023-01-23T18:43:39.861Z,21.23
2023-01-23T18:46:27.866Z,23.07
2023-01-23T18:49:18.979Z,22.43
2023-01-23T18:52:15.363Z,21.57
2023-01-23T18:55:26.598Z,23.17
2023-01-23T18:58:12.413Z,20.83
2023-01-23T19:01:16.602Z,22.43
2023-01-23T19:04:01.989Z,22.13
2023-01-23T19:06:47.848Z,21.73
2023-01-23T19:09:34.328Z,21.47
2023-01-23T19:12:50.567Z,25.40
2023-01-23T19:15:45.216Z,21.20
2023-01-23T19:18:40.154Z,23.33
2023-01-23T19:21:28.322Z,23.17
2023-01-23T19:24:18.182Z,20.43
2023-01-23T19:27:03.854Z,28.60
2023-01-23T19:29:49.302Z,22.97
2023-01-23T19:32:35.520Z,25.83
2023-01-23T19:35:21.602Z,22.73
2023-01-23T19:38:06.867Z,24.07
2023-01-23T19:40:52.462Z,22.77
2023-01-23T19:43:38.133Z,25.90
2023-01-23T19:46:32.283Z,20.60
2023-01-23T19:49:17.889Z,20.33
2023-01-23T19:52:03.594Z,21.97
2023-01-23T19:54:48.885Z,20.60
2023-01-23T19:57:34.519Z,21.80
2023-01-23T20:00:20.527Z,21.10
2023-01-23T20:03:06.175Z,22.30
2023-01-23T20:05:51.707Z,20.07
2023-01-23T20:08:37.129Z,22.77
2023-01-23T20:11:22.811Z,26.97
2023-01-23T20:14:08.415Z,33.33
2023-01-23T20:16:53.910Z,31.27
2023-01-23T20:19:40.248Z,30.60
2023-01-23T20:22:25.574Z,23.13
2023-01-23T20:25:13.941Z,23.30
2023-01-23T20:27:59.327Z,21.20
2023-01-23T20:30:44.771Z,24.67
2023-01-23T20:33:30.415Z,25.10
2023-01-23T20:36:16.025Z,21.13
2023-01-23T20:39:01.652Z,21.40
2023-01-23T20:41:47.105Z,23.73
2023-01-23T20:44:32.639Z,23.03
2023-01-23T20:47:18.071Z,22.10
2023-01-23T20:50:04.499Z,22.20
2023-01-23T20:53:08.978Z,24.27
2023-01-23T20:55:58.792Z,22.58
2023-01-23T20:59:05.600Z,21.83
2023-01-23T21:02:09.972Z,20.17
2023-01-23T21:04:55.385Z,27.63
2023-01-23T21:07:41.022Z,27.33
2023-01-23T21:10:27.024Z,28.00
2023-01-23T21:13:15.647Z,26.13
2023-01-23T21:16:04.282Z,25.07
2023-01-23T21:18:49.584Z,27.60
2023-01-23T21:21:35.433Z,23.57
2023-01-23T21:24:21.159Z,20.37
2023-01-23T21:27:07.111Z,19.23
2023-01-23T21:29:52.251Z,18.13
2023-01-23T21:32:37.871Z,21.07
2023-01-23T21:35:23.892Z,20.87
2023-01-23T21:38:09.251Z,20.00
2023-01-23T21:40:54.966Z,16.83
2023-01-23T21:43:40.473Z,20.20
2023-01-23T21:46:26.562Z,21.70
2023-01-23T21:49:11.820Z,18.87
2023-01-23T21:51:57.766Z,20.80
2023-01-23T21:54:43.297Z,21.07
2023-01-23T21:57:28.547Z,20.67
2023-01-23T22:00:32.572Z,21.37
2023-01-23T22:03:18.047Z,19.92
2023-01-23T22:06:03.627Z,19.07
2023-01-23T22:08:49.100Z,19.03
2023-01-23T22:11:35.370Z,17.00
2023-01-23T22:14:20.810Z,16.23
2023-01-23T22:17:07.992Z,20.77
2023-01-23T22:19:53.259Z,18.30
2023-01-23T22:22:38.884Z,18.20
2023-01-23T22:25:24.199Z,22.83
2023-01-23T22:28:09.877Z,19.50
2023-01-23T22:30:56.413Z,18.87
2023-01-23T22:33:45.838Z,18.20
2023-01-23T22:36:31.278Z,16.53
2023-01-23T22:39:17.116Z,19.70
2023-01-23T22:42:02.938Z,19.40
2023-01-23T22:44:48.289Z,17.70
2023-01-23T22:47:33.909Z,17.70
2023-01-23T22:50:20.056Z,17.53
2023-01-23T22:53:05.447Z,15.77
2023-01-23T23:02:14.819Z,17.40
2023-01-23T23:05:00.169Z,19.83
2023-01-23T23:17:20.287Z,16.90
2023-01-23T23:20:06.986Z,18.07
2023-01-23T23:29:14.602Z,16.70
2023-01-23T23:31:59.961Z,18.43
2023-01-23T23:34:45.513Z,16.10
2023-01-23T23:37:31.005Z,16.30
2023-01-23T23:40:16.786Z,17.23
2023-01-23T23:43:02.088Z,16.43
2023-01-23T23:45:51.913Z,15.37
2023-01-23T23:48:38.434Z,16.37
2023-01-23T23:51:26.481Z,15.37
2023-01-23T23:54:12.004Z,17.73
2023-01-23T23:56:57.550Z,19.33
2023-01-23T23:59:43.305Z,20.07
